Rio Grande, Texas
Current Conditions -  °F | °C
As of 4:35 AM on Thursday 25 Dec 2014 (Local Time) from KEBG Reporting Station
Clear Clear  
Wind Chill:   Ceiling: Unl
Heat Index:   Visibility: 10mi
Dew Point:   Wind: 0mph
Humidity: 80%   Direction: NA
Pressure: 30.15"   Gusts: NA
Location:  26.5735°N, 98.695°W
Report Text: KEBG 251035Z AUTO 00000KT 10SM CLR 03/00 A3015 RMK AO2 T00310000
Loading
Personal Weather Stations






























Interactive Weather Map New forecast layout! Learn more

10-Day Weather Forecast

Advertisements
Track Severe Weather on mobile